Time;durP1;ratioP1;P1;durP2;ratioP2;P2;SDS_P1;SDS_P2;PMS_P1;PMS_P2;Temp;Humidity;BMP_temperature;BMP_pressure;BME280_temperature;BME280_humidity;BME280_pressure;Samples;Min_cycle;Max_cycle;Signal;HPM_P1;HPM_P2
2024/01/22 00:01:42;;;;;;;48.30;25.60;;;64.60;2201.60;;;;;;4773376;29;20039;-74
2024/01/22 00:04:08;;;;;;;43.92;22.27;;;64.90;2201.60;;;;;;4770042;30;20039;-75
2024/01/22 00:06:37;;;;;;;31.30;16.75;;;64.90;2201.60;;;;;;4769548;29;20521;-75
2024/01/22 00:09:04;;;;;;;45.65;21.83;;;64.90;2201.60;;;;;;4773101;30;20400;-76
2024/01/22 00:11:30;;;;;;;50.40;25.23;;;64.80;2201.60;;;;;;4788481;30;20477;-78
2024/01/22 00:13:56;;;;;;;32.25;19.52;;;89.70;2176.00;;;;;;4771946;30;20043;-74
2024/01/22 00:16:25;;;;;;;99.47;55.05;;;89.80;2176.00;;;;;;4787970;30;20066;-76
2024/01/22 00:18:50;;;;;;;37.35;20.75;;;90.10;2176.00;;;;;;4771922;30;20054;-75
2024/01/22 00:21:16;;;;;;;30.83;18.27;;;90.10;2176.00;;;;;;4772117;30;20039;-75
2024/01/22 00:23:42;;;;;;;59.22;29.48;;;89.90;2176.00;;;;;;4771486;29;20083;-75
2024/01/22 00:26:14;;;;;;;52.13;29.55;;;89.80;2176.00;;;;;;4788928;29;20114;-74
2024/01/22 00:28:41;;;;;;;36.40;20.38;;;89.60;2201.60;;;;;;4791736;30;20083;-75
2024/01/22 00:31:07;;;;;;;36.05;18.95;;;89.60;2201.60;;;;;;4792250;30;20054;-75
2024/01/22 00:33:33;;;;;;;40.28;21.75;;;64.70;2201.60;;;;;;4775786;30;20084;-79
2024/01/22 00:39:21;;;;;;;62.53;31.58;;;89.70;2176.00;;;;;;4791700;30;20119;-77
2024/01/22 00:41:47;;;;;;;93.28;51.28;;;89.80;2176.00;;;;;;4775596;30;20085;-76
2024/01/22 00:44:14;;;;;;;71.80;38.78;;;89.90;2176.00;;;;;;4791885;30;20027;-75
2024/01/22 00:46:40;;;;;;;47.05;25.67;;;89.90;2176.00;;;;;;4792002;30;20027;-75
2024/01/22 00:49:06;;;;;;;51.60;26.13;;;89.90;2176.00;;;;;;4775683;30;20041;-77
2024/01/22 00:51:32;;;;;;;49.05;25.02;;;89.70;2176.00;;;;;;4791745;30;20525;-78
2024/01/22 00:53:58;;;;;;;60.72;28.98;;;89.60;2201.60;;;;;;4775813;30;20043;-75
2024/01/22 00:56:24;;;;;;;45.95;26.77;;;89.60;2201.60;;;;;;4776175;30;20126;-79
2024/01/22 00:58:49;;;;;;;44.30;23.88;;;64.90;2201.60;;;;;;4775472;30;20066;-77
2024/01/22 01:01:15;;;;;;;57.28;28.83;;;64.90;2201.60;;;;;;4792421;30;20043;-76
2024/01/22 01:03:41;;;;;;;68.82;35.40;;;64.80;2201.60;;;;;;4791987;30;20101;-75
2024/01/22 01:06:07;;;;;;;45.88;25.83;;;64.90;2201.60;;;;;;4791434;29;20040;-78
2024/01/22 01:08:32;;;;;;;49.75;22.80;;;89.60;2201.60;;;;;;4767263;30;20034;-74
2024/01/22 01:10:58;;;;;;;39.90;19.23;;;89.60;2201.60;;;;;;4781954;30;20168;-79
2024/01/22 01:13:24;;;;;;;37.42;18.92;;;64.90;2201.60;;;;;;4788633;30;20031;-77
2024/01/22 01:15:50;;;;;;;35.53;19.55;;;89.60;2201.60;;;;;;4788807;30;20077;-75
2024/01/22 01:18:15;;;;;;;46.00;21.88;;;90.00;2176.00;;;;;;4788152;30;20027;-76
2024/01/22 01:20:41;;;;;;;48.15;25.08;;;90.00;2176.00;;;;;;4771428;30;20047;-75
2024/01/22 01:23:07;;;;;;;48.33;27.42;;;89.80;2176.00;;;;;;4772209;30;20469;-77
2024/01/22 01:25:33;;;;;;;61.85;29.65;;;64.90;2201.60;;;;;;4788196;30;20051;-75
2024/01/22 01:27:59;;;;;;;40.80;23.23;;;89.60;2201.60;;;;;;4760137;30;20035;-76
2024/01/22 01:30:25;;;;;;;45.22;22.45;;;89.60;2201.60;;;;;;4788168;30;20376;-75
2024/01/22 01:32:50;;;;;;;39.10;18.95;;;89.60;2201.60;;;;;;4776221;30;20062;-75
2024/01/22 01:35:16;;;;;;;54.25;25.52;;;64.90;2201.60;;;;;;4771561;30;20062;-75
2024/01/22 01:37:42;;;;;;;46.92;24.90;;;64.90;2201.60;;;;;;4771257;30;20108;-77
2024/01/22 01:40:08;;;;;;;41.00;22.83;;;64.90;2201.60;;;;;;4772278;30;20031;-74
2024/01/22 01:42:34;;;;;;;50.97;23.65;;;64.90;2201.60;;;;;;4766976;30;20389;-75
2024/01/22 01:45:00;;;;;;;40.75;20.65;;;89.60;2201.60;;;;;;4764545;30;20040;-75
2024/01/22 01:47:26;;;;;;;47.00;23.30;;;64.90;2201.60;;;;;;4759004;30;20372;-75
2024/01/22 01:49:52;;;;;;;43.85;23.30;;;89.60;2201.60;;;;;;4781188;30;20092;-76
2024/01/22 01:52:19;;;;;;;48.95;22.95;;;89.60;2201.60;;;;;;4768777;30;20527;-75
2024/01/22 01:54:46;;;;;;;31.52;16.55;;;89.60;2201.60;;;;;;4796122;30;20039;-75
2024/01/22 01:57:12;;;;;;;34.65;16.23;;;89.60;2201.60;;;;;;4757268;30;20039;-74
2024/01/22 01:59:41;;;;;;;32.95;15.68;;;89.70;2176.00;;;;;;4782426;30;20036;-78
2024/01/22 02:02:07;;;;;;;28.13;13.00;;;89.60;2201.60;;;;;;4766305;30;20043;-74
2024/01/22 02:04:33;;;;;;;24.45;12.93;;;89.70;2176.00;;;;;;4781736;30;20031;-75
2024/01/22 02:07:00;;;;;;;23.73;11.77;;;90.00;2176.00;;;;;;4787734;30;20483;-77
2024/01/22 02:09:46;;;;;;;30.25;18.30;;;89.90;2176.00;;;;;;4771996;30;20049;-78
2024/01/22 02:12:12;;;;;;;32.70;15.95;;;89.80;2176.00;;;;;;4735978;30;20045;-74
2024/01/22 02:14:38;;;;;;;25.08;14.68;;;89.90;2176.00;;;;;;4777787;30;20027;-77
2024/01/22 02:17:03;;;;;;;20.33;9.75;;;90.30;2176.00;;;;;;4776526;30;20074;-77
2024/01/22 02:19:30;;;;;;;17.75;10.15;;;90.00;2176.00;;;;;;4786569;30;20558;-77
2024/01/22 02:21:56;;;;;;;19.23;10.43;;;90.20;2176.00;;;;;;4770177;30;20558;-74
2024/01/22 02:24:22;;;;;;;21.15;12.10;;;90.10;2176.00;;;;;;4786262;30;20142;-74
2024/01/22 02:26:48;;;;;;;31.35;13.63;;;90.20;2176.00;;;;;;4787147;30;20116;-76
2024/01/22 02:29:13;;;;;;;22.52;11.80;;;90.30;2176.00;;;;;;4787065;30;20043;-74
2024/01/22 02:31:40;;;;;;;24.38;11.88;;;90.00;2176.00;;;;;;4770908;30;20043;-75
2024/01/22 02:34:06;;;;;;;37.97;18.27;;;90.30;2176.00;;;;;;4771248;30;20046;-77
2024/01/22 02:36:32;;;;;;;46.95;26.95;;;90.20;2176.00;;;;;;4769887;30;20047;-75
2024/01/22 02:38:59;;;;;;;49.00;25.15;;;90.10;2176.00;;;;;;4770774;30;20031;-76
2024/01/22 02:41:24;;;;;;;41.55;23.63;;;90.00;2176.00;;;;;;4787238;30;20031;-78
2024/01/22 02:43:50;;;;;;;35.67;18.80;;;90.00;2176.00;;;;;;4770640;30;20134;-79
2024/01/22 02:46:17;;;;;;;39.42;20.65;;;90.00;2176.00;;;;;;4770866;30;20078;-78
2024/01/22 02:48:42;;;;;;;33.92;17.50;;;90.10;2176.00;;;;;;4787253;29;20374;-78
2024/01/22 02:51:14;;;;;;;26.42;15.60;;;90.10;2176.00;;;;;;4786826;30;20115;-74
2024/01/22 02:53:40;;;;;;;32.03;14.90;;;90.00;2176.00;;;;;;4786474;30;20119;-74
2024/01/22 02:56:06;;;;;;;33.30;15.85;;;89.90;2176.00;;;;;;4770820;30;20043;-77
2024/01/22 02:58:32;;;;;;;40.13;20.48;;;90.00;2176.00;;;;;;4787902;30;20031;-75
2024/01/22 03:00:57;;;;;;;31.98;15.85;;;90.10;2176.00;;;;;;4770554;30;20498;-75
2024/01/22 03:03:24;;;;;;;25.77;14.48;;;90.20;2176.00;;;;;;4760562;30;20035;-75
2024/01/22 03:05:51;;;;;;;27.63;13.73;;;90.10;2176.00;;;;;;4780286;24;20511;-75
2024/01/22 03:08:19;;;;;;;28.77;14.50;;;90.10;2176.00;;;;;;4792893;24;20063;-75
2024/01/22 03:10:45;;;;;;;26.85;13.65;;;90.10;2176.00;;;;;;4787999;29;20043;-75
2024/01/22 03:13:14;;;;;;;24.63;11.90;;;90.30;2176.00;;;;;;4788625;29;20113;-75
2024/01/22 03:15:39;;;;;;;28.90;12.73;;;90.20;2176.00;;;;;;4787864;29;20042;-75
2024/01/22 03:18:05;;;;;;;24.42;12.82;;;90.30;2176.00;;;;;;4786482;29;20027;-75
2024/01/22 03:20:31;;;;;;;20.33;12.00;;;90.30;2176.00;;;;;;4786572;29;20092;-74
2024/01/22 03:22:57;;;;;;;22.52;13.20;;;90.50;2176.00;;;;;;4786031;29;20100;-78
2024/01/22 03:25:22;;;;;;;26.23;15.38;;;90.50;2176.00;;;;;;4785389;30;20457;-78
2024/01/22 03:27:48;;;;;;;30.35;15.75;;;90.20;2176.00;;;;;;4774256;29;20475;-74
2024/01/22 03:30:14;;;;;;;30.95;16.80;;;90.30;2176.00;;;;;;4774955;30;20031;-75
2024/01/22 03:32:40;;;;;;;22.10;13.43;;;90.30;2176.00;;;;;;4781576;30;20039;-74
2024/01/22 03:35:06;;;;;;;26.95;16.40;;;90.20;2176.00;;;;;;4775042;30;20073;-74
2024/01/22 03:37:32;;;;;;;31.73;15.30;;;90.20;2176.00;;;;;;4791712;24;20059;-77
2024/01/22 03:39:58;;;;;;;52.55;26.52;;;90.30;2176.00;;;;;;4787276;29;20050;-74
2024/01/22 03:42:24;;;;;;;28.90;16.00;;;90.30;2176.00;;;;;;4786788;29;20122;-74
2024/01/22 03:44:50;;;;;;;28.08;15.50;;;90.30;2176.00;;;;;;4787122;29;20070;-74
2024/01/22 03:47:15;;;;;;;25.50;11.80;;;90.30;2176.00;;;;;;4787258;29;20401;-76
2024/01/22 03:49:41;;;;;;;26.67;14.85;;;90.40;2176.00;;;;;;4796517;29;20039;-76
2024/01/22 03:52:07;;;;;;;27.80;15.38;;;90.40;2176.00;;;;;;4792687;29;20469;-75
2024/01/22 03:54:34;;;;;;;33.03;17.55;;;90.40;2176.00;;;;;;4795101;29;20046;-74
2024/01/22 03:57:06;;;;;;;31.33;16.70;;;115.20;2176.00;;;;;;4787186;29;20104;-74
2024/01/22 03:59:32;;;;;;;23.75;13.30;;;115.20;2176.00;;;;;;4798473;29;20104;-74
2024/01/22 04:01:58;;;;;;;28.63;16.08;;;90.50;2176.00;;;;;;4790511;29;20034;-74
2024/01/22 04:04:23;;;;;;;30.50;15.00;;;90.50;2176.00;;;;;;4791141;29;20390;-74
2024/01/22 04:06:49;;;;;;;32.10;16.45;;;115.20;2176.00;;;;;;4786934;29;20028;-78
2024/01/22 04:09:15;;;;;;;32.40;15.93;;;115.20;2176.00;;;;;;4783130;29;20039;-75
2024/01/22 04:11:41;;;;;;;28.70;16.13;;;115.20;2176.00;;;;;;4807297;29;20042;-73
2024/01/22 04:14:08;;;;;;;32.13;14.95;;;115.20;2176.00;;;;;;4790583;29;20066;-74
2024/01/22 04:16:34;;;;;;;29.90;15.48;;;115.30;2176.00;;;;;;4808088;29;20541;-81
2024/01/22 04:19:00;;;;;;;31.27;15.80;;;115.50;2176.00;;;;;;4791036;29;20117;-75
2024/01/22 04:21:27;;;;;;;25.83;13.40;;;115.70;2176.00;;;;;;4807482;29;20038;-74
2024/01/22 04:23:53;;;;;;;24.60;12.98;;;115.90;2176.00;;;;;;4807383;29;20035;-73
2024/01/22 04:26:19;;;;;;;22.33;10.95;;;116.00;2176.00;;;;;;4806719;29;20037;-74
2024/01/22 04:28:45;;;;;;;19.77;12.15;;;115.90;2176.00;;;;;;4807229;29;20030;-74
2024/01/22 04:31:11;;;;;;;23.63;13.10;;;115.70;2176.00;;;;;;4790941;29;20042;-76
2024/01/22 04:33:37;;;;;;;23.85;12.32;;;115.50;2176.00;;;;;;4791103;29;20467;-75
2024/01/22 04:36:03;;;;;;;15.98;7.57;;;115.50;2176.00;;;;;;4807512;29;20117;-78
2024/01/22 04:38:30;;;;;;;16.15;8.85;;;115.40;2176.00;;;;;;4806913;29;20611;-74
2024/01/22 04:40:56;;;;;;;14.65;8.38;;;115.40;2176.00;;;;;;4819205;29;20470;-75
2024/01/22 04:43:22;;;;;;;18.23;8.50;;;115.30;2176.00;;;;;;4801581;29;20437;-74
2024/01/22 04:45:48;;;;;;;12.90;6.93;;;115.50;2176.00;;;;;;4791671;29;20031;-74
2024/01/22 04:48:14;;;;;;;20.80;9.50;;;115.40;2176.00;;;;;;4806584;29;20129;-74
2024/01/22 04:50:39;;;;;;;17.02;10.88;;;115.30;2176.00;;;;;;4790471;29;20549;-74
2024/01/22 04:53:05;;;;;;;20.05;10.98;;;115.50;2176.00;;;;;;4801862;29;20030;-78
2024/01/22 04:55:31;;;;;;;32.83;18.38;;;116.10;2176.00;;;;;;4791074;29;20069;-75
2024/01/22 04:57:57;;;;;;;40.17;22.35;;;141.10;2176.00;;;;;;4806722;29;20030;-74
2024/01/22 05:00:22;;;;;;;28.08;14.32;;;141.10;2176.00;;;;;;4818999;29;20058;-75
2024/01/22 05:02:48;;;;;;;38.97;17.73;;;141.00;2176.00;;;;;;4801254;29;20026;-74
2024/01/22 05:05:14;;;;;;;24.92;13.02;;;140.80;2176.00;;;;;;4807499;29;20027;-75
2024/01/22 05:07:40;;;;;;;27.45;14.68;;;116.00;2176.00;;;;;;4790485;29;20035;-74
2024/01/22 05:10:10;;;;;;;27.10;13.45;;;115.80;2176.00;;;;;;4800877;29;20039;-75
2024/01/22 05:12:37;;;;;;;23.35;12.18;;;115.80;2176.00;;;;;;4816691;29;20053;-74
2024/01/22 05:15:04;;;;;;;22.10;11.48;;;115.80;2176.00;;;;;;4807721;29;20489;-79
2024/01/22 05:17:29;;;;;;;26.08;13.80;;;115.70;2176.00;;;;;;4813030;29;20091;-74
2024/01/22 05:19:55;;;;;;;18.73;12.73;;;115.60;2176.00;;;;;;4806377;29;20031;-76
2024/01/22 05:22:21;;;;;;;17.73;9.63;;;115.60;2176.00;;;;;;4790177;29;20039;-78
2024/01/22 05:24:47;;;;;;;11.75;5.93;;;115.60;2176.00;;;;;;4790638;29;20035;-75
2024/01/22 05:27:14;;;;;;;14.55;8.85;;;115.60;2176.00;;;;;;4791103;29;20035;-75
2024/01/22 05:29:40;;;;;;;66.25;28.27;;;115.60;2176.00;;;;;;4809855;29;20031;-77
2024/01/22 05:32:06;;;;;;;36.55;22.02;;;116.10;2176.00;;;;;;4798883;29;20127;-75
2024/01/22 05:34:32;;;;;;;33.38;19.00;;;140.80;2176.00;;;;;;4779907;29;20505;-74
2024/01/22 05:36:57;;;;;;;29.10;15.50;;;116.10;2176.00;;;;;;4802943;29;20110;-75
2024/01/22 05:39:27;;;;;;;23.17;11.63;;;140.80;2176.00;;;;;;4792903;29;20108;-75
2024/01/22 05:41:56;;;;;;;24.33;11.40;;;140.90;2176.00;;;;;;4792619;29;20126;-75
2024/01/22 05:44:22;;;;;;;31.55;13.35;;;116.10;2176.00;;;;;;4808193;29;20030;-74
2024/01/22 05:46:49;;;;;;;15.23;7.70;;;116.10;2176.00;;;;;;4808756;29;20034;-77
2024/01/22 05:49:15;;;;;;;12.00;6.03;;;140.80;2176.00;;;;;;4780044;29;20057;-78
2024/01/22 05:51:41;;;;;;;12.23;7.00;;;116.00;2176.00;;;;;;4808279;29;20062;-78
2024/01/22 05:54:07;;;;;;;16.45;9.40;;;115.90;2176.00;;;;;;4809118;29;20474;-75
2024/01/22 05:56:33;;;;;;;13.68;7.60;;;115.90;2176.00;;;;;;4794772;29;20031;-77
2024/01/22 05:58:58;;;;;;;18.30;10.88;;;115.90;2176.00;;;;;;4806016;29;20495;-78
2024/01/22 06:01:26;;;;;;;17.90;11.43;;;116.10;2176.00;;;;;;4776562;29;20046;-75
2024/01/22 06:03:51;;;;;;;15.65;6.75;;;115.90;2176.00;;;;;;4778934;29;20023;-75
2024/01/22 06:06:18;;;;;;;18.17;7.40;;;115.80;2176.00;;;;;;4793137;29;20501;-75
2024/01/22 06:08:45;;;;;;;11.65;7.43;;;115.70;2176.00;;;;;;4771707;30;20059;-74
2024/01/22 06:11:12;;;;;;;13.25;9.70;;;115.70;2176.00;;;;;;4789427;29;20039;-74
2024/01/22 06:13:39;;;;;;;16.63;10.25;;;115.70;2176.00;;;;;;4787936;30;20446;-74
2024/01/22 06:16:09;;;;;;;20.48;10.55;;;115.90;2176.00;;;;;;4789321;29;20031;-80
2024/01/22 06:18:36;;;;;;;26.30;13.15;;;115.80;2176.00;;;;;;4780677;29;20034;-78
2024/01/22 06:21:03;;;;;;;15.10;9.32;;;115.50;2176.00;;;;;;4778576;29;20118;-74
2024/01/22 06:23:28;;;;;;;16.23;8.73;;;115.50;2176.00;;;;;;4782723;29;20125;-79
2024/01/22 06:25:56;;;;;;;14.75;8.95;;;115.40;2176.00;;;;;;4771461;29;20047;-73
2024/01/22 06:28:23;;;;;;;19.77;9.50;;;115.30;2176.00;;;;;;4764311;29;20046;-78
2024/01/22 06:30:49;;;;;;;22.52;14.00;;;115.30;2176.00;;;;;;4773554;29;20337;-74
2024/01/22 06:33:14;;;;;;;25.00;11.98;;;115.30;2176.00;;;;;;4770875;30;20040;-75
2024/01/22 06:35:40;;;;;;;26.55;17.70;;;115.50;2176.00;;;;;;4770847;29;20466;-74
2024/01/22 06:38:06;;;;;;;18.35;11.43;;;115.60;2176.00;;;;;;4787726;29;20063;-78
2024/01/22 06:40:33;;;;;;;25.20;12.52;;;115.60;2176.00;;;;;;4774683;29;20031;-74
2024/01/22 06:42:59;;;;;;;20.85;12.43;;;115.80;2176.00;;;;;;4771154;30;20840;-77
2024/01/22 06:45:25;;;;;;;18.27;10.82;;;115.60;2176.00;;;;;;4771270;30;20123;-76
2024/01/22 06:47:52;;;;;;;19.92;10.73;;;115.80;2176.00;;;;;;4780177;29;20470;-74
2024/01/22 06:50:18;;;;;;;25.50;13.27;;;115.70;2176.00;;;;;;4788224;29;20084;-74
2024/01/22 06:52:47;;;;;;;32.42;16.88;;;115.50;2176.00;;;;;;4771050;29;20766;-75
2024/01/22 06:55:13;;;;;;;199.35;96.95;;;115.70;2176.00;;;;;;4774671;29;20038;-75
2024/01/22 06:57:39;;;;;;;39.58;19.92;;;115.70;2176.00;;;;;;4788642;30;20031;-75
2024/01/22 07:00:12;;;;;;;23.25;12.35;;;115.70;2176.00;;;;;;4793156;29;20069;-79
2024/01/22 07:02:38;;;;;;;25.25;13.32;;;115.80;2176.00;;;;;;4782291;30;20121;-74
2024/01/22 07:05:06;;;;;;;29.50;19.27;;;115.40;2176.00;;;;;;4799715;29;20601;-75
2024/01/22 07:07:33;;;;;;;28.13;16.58;;;115.40;2176.00;;;;;;4763475;30;20407;-74
2024/01/22 07:10:00;;;;;;;28.75;13.55;;;90.50;2176.00;;;;;;4778578;30;20450;-74
2024/01/22 07:12:25;;;;;;;21.13;12.13;;;90.40;2176.00;;;;;;4769532;30;20036;-79
2024/01/22 07:14:51;;;;;;;31.15;14.48;;;90.40;2176.00;;;;;;4753417;30;20040;-74
2024/01/22 07:17:21;;;;;;;49.88;26.92;;;90.30;2176.00;;;;;;4770009;30;20032;-74
2024/01/22 07:19:47;;;;;;;100.88;53.50;;;90.20;2176.00;;;;;;4771189;30;20452;-75
2024/01/22 07:22:13;;;;;;;47.33;25.67;;;90.10;2176.00;;;;;;4771127;30;20084;-75
2024/01/22 07:24:39;;;;;;;30.02;18.33;;;90.20;2176.00;;;;;;4774772;29;20026;-75
2024/01/22 07:27:05;;;;;;;137.95;72.22;;;90.20;2176.00;;;;;;4777924;30;20047;-78
2024/01/22 07:29:31;;;;;;;107.40;58.85;;;64.90;2201.60;;;;;;4785236;29;20031;-75
2024/01/22 07:31:57;;;;;;;266.95;132.55;;;89.90;2176.00;;;;;;4770552;30;20463;-74
2024/01/22 07:34:23;;;;;;;421.15;223.57;;;89.90;2176.00;;;;;;4790469;29;20030;-76
2024/01/22 07:36:50;;;;;;;342.70;181.68;;;89.80;2176.00;;;;;;4777401;30;20035;-75
2024/01/22 07:39:16;;;;;;;143.48;71.93;;;89.60;2201.60;;;;;;4774720;29;20054;-75
2024/01/22 07:41:42;;;;;;;86.53;49.45;;;64.90;2201.60;;;;;;4779110;30;20058;-74
2024/01/22 07:44:08;;;;;;;68.40;36.05;;;64.80;2201.60;;;;;;4776224;29;20038;-75
2024/01/22 07:46:34;;;;;;;231.05;127.80;;;64.60;2201.60;;;;;;4782228;30;20028;-75
2024/01/22 07:49:00;;;;;;;289.52;154.50;;;64.50;2201.60;;;;;;4775977;30;20133;-75
2024/01/22 07:51:28;;;;;;;383.67;215.57;;;64.50;2201.60;;;;;;4775995;30;20082;-75
2024/01/22 07:53:55;;;;;;;426.90;248.18;;;64.40;2201.60;;;;;;4790380;29;20024;-75
2024/01/22 09:49:39;;;;;;;368.13;302.27;;;281.90;1536.00;;;;;;5421815;24;19986;31
2024/01/22 09:52:07;;;;;;;285.38;245.88;;;230.50;1689.60;;;;;;4759274;30;20056;-82
2024/01/22 09:54:40;;;;;;;556.20;428.80;;;205.60;1715.20;;;;;;5005936;24;20064;-78
2024/01/22 09:57:08;;;;;;;355.42;296.08;;;205.20;1740.80;;;;;;4764821;30;20364;-83
2024/01/22 09:59:35;;;;;;;335.55;294.02;;;205.40;1766.40;;;;;;4766955;30;20132;-82
2024/01/22 10:02:02;;;;;;;270.98;230.85;;;205.70;1740.80;;;;;;4767311;30;20111;-79
2024/01/22 11:22:27;;;;;;;170.00;107.77;;;102.60;2124.80;;;;;;4715024;24;20047;-77
2024/01/22 11:25:01;;;;;;;187.52;121.32;;;102.70;2150.40;;;;;;4783901;30;20370;-74
2024/01/22 11:27:47;;;;;;;203.02;126.63;;;102.80;2176.00;;;;;;4783696;30;20028;-75
2024/01/22 11:30:24;;;;;;;177.98;117.05;;;102.90;2176.00;;;;;;4787482;29;20128;-75
2024/01/22 11:32:50;;;;;;;189.25;118.30;;;102.90;2150.40;;;;;;4799658;30;20027;-77
2024/01/22 11:35:36;;;;;;;167.98;111.32;;;128.30;2150.40;;;;;;4799170;30;20042;-79
2024/01/22 11:38:03;;;;;;;203.18;121.40;;;103.00;2150.40;;;;;;4787875;30;20034;-78
2024/01/22 13:07:52;;;;;;;96.32;61.10;;;128.80;2124.80;;;;;;5324197;24;20055;-77
2024/01/22 13:10:18;;;;;;;89.40;52.78;;;128.80;2124.80;;;;;;4797818;30;20031;-77
2024/01/22 13:12:44;;;;;;;83.55;53.95;;;128.80;2124.80;;;;;;4888995;24;20051;-77
2024/01/22 13:20:07;;;;;;;90.75;57.75;;;153.60;2099.20;;;;;;4804902;24;20047;-74
2024/01/22 13:25:04;;;;;;;157.38;96.97;;;128.60;2150.40;;;;;;4798748;29;20055;-76
2024/01/22 13:27:30;;;;;;;122.80;72.03;;;128.50;2176.00;;;;;;4796076;30;20044;-78
2024/01/22 13:29:56;;;;;;;122.90;73.40;;;128.70;2150.40;;;;;;5207141;24;20063;-75
2024/01/22 13:32:22;;;;;;;132.07;80.18;;;128.80;2150.40;;;;;;4769581;30;20516;-75
2024/01/22 13:34:47;;;;;;;168.18;95.30;;;128.70;2150.40;;;;;;4768539;30;20040;-74
2024/01/22 13:39:48;;;;;;;123.63;78.13;;;128.90;2176.00;;;;;;4799803;24;20056;-77
2024/01/22 13:42:15;;;;;;;158.75;88.78;;;128.70;2176.00;;;;;;4777247;29;20048;-76
2024/01/22 13:47:34;;;;;;;127.95;83.50;;;128.80;2176.00;;;;;;3788789;24;20284;-78
2024/01/22 13:50:02;;;;;;;128.80;81.28;;;128.90;2176.00;;;;;;4786969;24;20050;-78
2024/01/22 14:03:42;;;;;;;120.30;75.38;;;128.80;2201.60;;;;;;4807132;24;20758;-74
2024/01/22 14:06:08;;;;;;;79.13;52.55;;;128.80;2201.60;;;;;;4768238;30;20092;-76
2024/01/22 14:08:33;;;;;;;87.22;51.42;;;128.70;2176.00;;;;;;4772540;30;20554;-74
2024/01/22 14:10:59;;;;;;;100.65;59.85;;;128.80;2176.00;;;;;;4755181;30;20052;-74
2024/01/22 14:13:26;;;;;;;101.55;61.53;;;153.60;2176.00;;;;;;4747095;30;20438;-73
2024/01/22 14:15:53;;;;;;;105.10;64.90;;;153.60;2176.00;;;;;;4762365;30;20047;-72
2024/01/22 14:18:19;;;;;;;145.63;87.65;;;153.60;2150.40;;;;;;4765357;30;20035;-72
2024/01/22 14:20:46;;;;;;;134.85;83.35;;;153.60;2176.00;;;;;;4767363;30;20039;-75
2024/01/22 14:23:12;;;;;;;135.48;88.03;;;153.70;2176.00;;;;;;4773787;30;20475;-73
2024/01/22 14:25:38;;;;;;;253.23;150.63;;;153.60;2176.00;;;;;;4762158;30;20106;-74
2024/01/22 14:28:05;;;;;;;164.02;99.97;;;153.60;2176.00;;;;;;4770447;30;20044;-74
2024/01/22 14:30:30;;;;;;;200.77;113.65;;;153.60;2201.60;;;;;;4766231;30;20063;-73
2024/01/22 14:32:56;;;;;;;257.85;142.80;;;128.90;2176.00;;;;;;4768800;30;20594;-75
2024/01/22 14:35:24;;;;;;;137.77;88.25;;;153.60;2201.60;;;;;;4759242;30;20063;-75
2024/01/22 14:37:50;;;;;;;137.00;91.22;;;128.90;2201.60;;;;;;4766733;30;20031;-75
2024/01/22 14:40:15;;;;;;;206.45;118.22;;;128.90;2201.60;;;;;;4763310;30;20028;-73
2024/01/22 14:42:41;;;;;;;238.75;144.30;;;128.80;2201.60;;;;;;4766566;30;20088;-74
2024/01/22 14:45:11;;;;;;;390.17;187.77;;;128.70;2201.60;;;;;;4762590;30;20040;-74
2024/01/22 14:47:36;;;;;;;185.65;113.10;;;128.60;2227.20;;;;;;4778325;30;20042;-74
2024/01/22 14:50:03;;;;;;;146.93;92.05;;;128.60;2227.20;;;;;;4764424;30;20040;-74
2024/01/22 14:52:29;;;;;;;123.75;85.20;;;128.60;2252.80;;;;;;4768090;30;20111;-72
2024/01/22 14:54:58;;;;;;;100.90;66.53;;;128.60;2252.80;;;;;;4764145;30;20066;-74
2024/01/22 14:57:24;;;;;;;115.38;78.05;;;128.60;2252.80;;;;;;4776846;30;20039;-75
2024/01/22 14:59:50;;;;;;;211.48;137.30;;;128.30;2252.80;;;;;;4769883;30;20498;-72
2024/01/22 15:02:16;;;;;;;200.68;130.25;;;128.20;2252.80;;;;;;4766177;30;20058;-72
2024/01/22 15:04:41;;;;;;;208.50;134.43;;;128.00;2252.80;;;;;;4763917;30;20604;-73
2024/01/22 15:07:08;;;;;;;229.77;143.38;;;128.10;2252.80;;;;;;4761140;30;20039;-74
2024/01/22 15:09:34;;;;;;;164.98;108.88;;;128.00;2252.80;;;;;;4759451;30;20056;-74
2024/01/22 15:12:00;;;;;;;184.75;123.65;;;128.10;2252.80;;;;;;4772129;30;20047;-73
2024/01/22 15:14:28;;;;;;;221.10;146.82;;;128.10;2252.80;;;;;;4761877;30;20036;-74
2024/01/22 15:16:54;;;;;;;118.32;74.93;;;128.10;2252.80;;;;;;4769697;30;20048;-75
2024/01/22 15:19:20;;;;;;;126.80;83.50;;;128.00;2252.80;;;;;;4755358;30;20028;-73
2024/01/22 15:21:47;;;;;;;144.00;94.40;;;128.20;2252.80;;;;;;4775236;30;20092;-77
2024/01/22 15:24:13;;;;;;;120.93;79.28;;;128.20;2252.80;;;;;;4769262;30;20122;-73
2024/01/22 15:26:39;;;;;;;132.77;87.78;;;128.10;2252.80;;;;;;4757895;30;20675;-72
2024/01/22 15:29:05;;;;;;;146.82;98.38;;;128.10;2252.80;;;;;;4750620;30;20446;-73
2024/01/22 15:31:32;;;;;;;110.68;75.03;;;128.00;2252.80;;;;;;4766049;30;20043;-74
2024/01/22 15:33:59;;;;;;;84.60;56.80;;;103.20;2227.20;;;;;;4764148;30;20058;-73
2024/01/22 15:36:25;;;;;;;71.68;45.55;;;103.30;2227.20;;;;;;4769453;30;20540;-74
2024/01/22 15:38:51;;;;;;;161.55;103.53;;;103.00;2227.20;;;;;;4769007;30;20075;-73
2024/01/22 15:41:17;;;;;;;66.05;43.28;;;103.00;2227.20;;;;;;4762478;30;20086;-74
2024/01/22 15:43:43;;;;;;;101.90;61.15;;;102.90;2227.20;;;;;;4766952;30;20039;-74
2024/01/22 15:46:09;;;;;;;71.00;44.83;;;102.90;2227.20;;;;;;4760019;30;20027;-73
2024/01/22 15:48:35;;;;;;;176.75;111.57;;;102.80;2227.20;;;;;;4759847;30;20035;-73
2024/01/22 15:51:01;;;;;;;99.85;64.65;;;102.80;2227.20;;;;;;4762419;30;20151;-74
2024/01/22 15:53:27;;;;;;;107.20;73.53;;;102.80;2227.20;;;;;;4767919;30;20439;-74
2024/01/22 15:55:53;;;;;;;348.45;203.38;;;102.70;2227.20;;;;;;4767549;30;20106;-75
2024/01/22 15:58:19;;;;;;;268.33;168.60;;;102.40;2227.20;;;;;;4763941;30;20119;-78
2024/01/22 16:00:45;;;;;;;244.55;150.45;;;102.40;2227.20;;;;;;4772697;30;20031;-73
2024/01/22 16:03:10;;;;;;;284.35;174.25;;;102.40;2227.20;;;;;;4761266;30;20043;-73
2024/01/22 16:05:37;;;;;;;200.55;128.05;;;77.60;2227.20;;;;;;4764892;30;20040;-74
2024/01/22 16:08:03;;;;;;;264.75;164.20;;;102.40;2227.20;;;;;;4769727;30;20028;-74
2024/01/22 16:10:30;;;;;;;215.48;129.98;;;102.70;2227.20;;;;;;4753916;30;20391;-73
2024/01/22 16:12:56;;;;;;;160.60;104.25;;;77.60;2227.20;;;;;;4755398;30;20494;-73
2024/01/22 16:15:22;;;;;;;100.63;66.72;;;77.60;2227.20;;;;;;4765341;30;20040;-74
2024/01/22 16:17:48;;;;;;;148.73;89.40;;;77.40;2227.20;;;;;;4763037;30;20043;-74
2024/01/22 16:20:14;;;;;;;183.30;126.25;;;77.20;2227.20;;;;;;4774668;30;20030;-74
2024/01/22 16:22:40;;;;;;;113.35;71.30;;;77.30;2227.20;;;;;;4769465;30;20043;-74
2024/01/22 16:25:07;;;;;;;85.88;57.88;;;77.20;2227.20;;;;;;4767905;30;20059;-74
2024/01/22 16:27:32;;;;;;;86.82;57.83;;;77.30;2227.20;;;;;;4767589;30;20024;-75
2024/01/22 16:29:58;;;;;;;105.18;71.57;;;77.20;2227.20;;;;;;4771312;30;20031;-74
2024/01/22 16:32:27;;;;;;;93.07;58.33;;;77.20;2227.20;;;;;;4770566;30;20036;-75
2024/01/22 16:34:52;;;;;;;100.15;62.30;;;77.00;2227.20;;;;;;4765604;30;20035;-74
2024/01/22 16:37:18;;;;;;;94.45;58.38;;;77.00;2227.20;;;;;;4767671;30;20933;-74
2024/01/22 16:39:46;;;;;;;100.28;61.97;;;77.00;2227.20;;;;;;4766447;30;20028;-74
2024/01/22 16:42:12;;;;;;;93.70;59.28;;;76.90;2227.20;;;;;;4760104;30;20375;-75
2024/01/22 16:44:38;;;;;;;90.70;57.65;;;76.90;2227.20;;;;;;4774923;30;20032;-74
2024/01/22 16:47:07;;;;;;;89.13;55.78;;;77.00;2227.20;;;;;;4760611;30;20168;-74
2024/01/22 16:49:33;;;;;;;88.60;59.17;;;77.00;2227.20;;;;;;4774300;30;20036;-73
2024/01/22 16:51:59;;;;;;;188.18;114.65;;;76.90;2227.20;;;;;;4766987;30;20044;-73
2024/01/22 16:54:25;;;;;;;98.47;65.03;;;76.80;2227.20;;;;;;4771704;30;20019;-74
2024/01/22 16:56:51;;;;;;;104.00;68.05;;;52.00;2227.20;;;;;;4759416;30;20491;-73
2024/01/22 16:59:17;;;;;;;132.73;77.03;;;51.80;2227.20;;;;;;4765885;30;20390;-74
2024/01/22 17:01:43;;;;;;;167.65;102.70;;;51.80;2227.20;;;;;;4779921;30;20035;-74